Alkimos — 9HA4421 — position and weather

sailwx.info

Track history (hours):
 
Tides and Currents Weather Stations Pressure Air Temp Water Temp Dewpoint Dewpoint Depression Visibility Wind Speed Wind Dir Waves Ship Positions

Alkimos

Last reported at 2017-Oct-19 13:17 UTC. Time now 2017-Nov-22 11:10 UTC.
Position N 17°44' W 061°04'.
Warning: this ship's position is 33 days out of date.

Length 146 m; draft 8.1 m.

Type: Ship. MMSI: 249894000.

Date/timePositionNaut miles runAvg speedWind from/ knotsBaromVisibWave heightAir tempDewpointWater temp
2017-Oct-19 13:17N 17°44' W 061°04'8 9.0
2017-Oct-19 12:26N 17°47' W 061°12'4 8.9
2017-Oct-19 12:00N 17°48' W 061°16'5 9.3
2017-Oct-19 11:30N 17°49' W 061°20'5 9.2
2017-Oct-19 11:00N 17°50' W 061°25'5 9.5
2017-Oct-19 10:28N 17°52' W 061°30'5 9.7
2017-Oct-19 09:59N 17°53' W 061°35'21 9.4
2017-Oct-19 07:42N 17°59' W 061°56'210.2
2017-Oct-19 07:29N 17°58' W 061°58'510.2
2017-Oct-19 07:00N 17°56' W 062°03'510.4
2017-Oct-19 06:30N 17°53' W 062°08'510.5
2017-Oct-19 06:00N 17°50' W 062°13'510.8
2017-Oct-19 05:30N 17°48' W 062°17'611.0
2017-Oct-19 05:00N 17°45' W 062°23'610.9
2017-Oct-19 04:25N 17°42' W 062°28'  
Track history (hours):
 
Tides and Currents Weather Stations Pressure Air Temp Water Temp Dewpoint Dewpoint Depression Visibility Wind Speed Wind Dir Waves Ship Positions

Alkimos

Last reported at 2017-Oct-19 13:17 UTC. Time now 2017-Nov-22 11:10 UTC.
Position N 17°44' W 061°04'.
Warning: this ship's position is 33 days out of date.

Length 146 m; draft 8.1 m.

Type: Ship. MMSI: 249894000.

Date/timePositionNaut miles runAvg speedWind from/ knotsBaromVisibWave heightAir tempDewpointWater temp
2017-Oct-19 13:17N 17°44' W 061°04'8 9.0
2017-Oct-19 12:26N 17°47' W 061°12'4 8.9
2017-Oct-19 12:00N 17°48' W 061°16'5 9.3
2017-Oct-19 11:30N 17°49' W 061°20'5 9.2
2017-Oct-19 11:00N 17°50' W 061°25'5 9.5
2017-Oct-19 10:28N 17°52' W 061°30'5 9.7
2017-Oct-19 09:59N 17°53' W 061°35'21 9.4
2017-Oct-19 07:42N 17°59' W 061°56'210.2
2017-Oct-19 07:29N 17°58' W 061°58'510.2
2017-Oct-19 07:00N 17°56' W 062°03'510.4
2017-Oct-19 06:30N 17°53' W 062°08'510.5
2017-Oct-19 06:00N 17°50' W 062°13'510.8
2017-Oct-19 05:30N 17°48' W 062°17'611.0
2017-Oct-19 05:00N 17°45' W 062°23'610.9
2017-Oct-19 04:25N 17°42' W 062°28'  

Dump ship's entire track history